Time;durP1;ratioP1;P1;durP2;ratioP2;P2;SDS_P1;SDS_P2;PMS_P1;PMS_P2;Temp;Humidity;BMP_temperature;BMP_pressure;BME280_temperature;BME280_humidity;BME280_pressure;Samples;Min_cycle;Max_cycle;Signal;HPM_P1;HPM_P2
2020/03/04 00:02:02;;;;;;;2.34;2.14;;;;;;;19.44;37.93;100033.95;;;;-47
2020/03/04 00:05:02;;;;;;;2.69;2.05;;;;;;;19.40;38.00;100029.31;;;;-49
2020/03/04 00:08:02;;;;;;;2.21;2.01;;;;;;;19.40;37.96;100035.04;;;;-47
2020/03/04 00:11:02;;;;;;;2.87;2.11;;;;;;;19.37;37.98;100036.70;;;;-47
2020/03/04 00:14:02;;;;;;;2.53;2.08;;;;;;;19.35;37.98;100037.97;;;;-47
2020/03/04 00:17:02;;;;;;;2.65;2.13;;;;;;;19.34;38.02;100039.20;;;;-47
2020/03/04 00:20:01;;;;;;;2.20;1.99;;;;;;;19.32;37.99;100041.30;;;;-48
2020/03/04 00:23:02;;;;;;;2.35;2.12;;;;;;;19.31;38.00;100043.70;;;;-47
2020/03/04 00:26:02;;;;;;;2.19;1.99;;;;;;;19.29;38.02;100049.99;;;;-47
2020/03/04 00:29:02;;;;;;;3.41;2.13;;;;;;;19.27;38.04;100052.42;;;;-47
2020/03/04 00:32:03;;;;;;;2.28;2.00;;;;;;;19.26;38.09;100057.24;;;;-47
2020/03/04 00:35:02;;;;;;;2.27;2.07;;;;;;;19.25;38.08;100062.46;;;;-47
2020/03/04 00:38:02;;;;;;;2.19;1.93;;;;;;;19.24;38.10;100063.52;;;;-47
2020/03/04 00:41:01;;;;;;;2.93;2.19;;;;;;;19.22;38.07;100071.66;;;;-47
2020/03/04 00:44:02;;;;;;;2.20;1.92;;;;;;;19.22;38.11;100072.05;;;;-47
2020/03/04 00:47:02;;;;;;;2.33;2.10;;;;;;;19.20;38.15;100074.98;;;;-47
2020/03/04 00:50:02;;;;;;;2.00;1.80;;;;;;;19.18;38.09;100070.49;;;;-47
2020/03/04 00:53:02;;;;;;;2.36;1.95;;;;;;;19.17;38.14;100069.55;;;;-46
2020/03/04 00:56:02;;;;;;;2.00;1.80;;;;;;;19.16;38.13;100067.50;;;;-47
2020/03/04 00:59:02;;;;;;;2.26;2.03;;;;;;;19.14;38.18;100061.96;;;;-47
2020/03/04 01:02:02;;;;;;;2.46;2.03;;;;;;;19.13;38.18;100055.56;;;;-48
2020/03/04 01:05:01;;;;;;;2.03;1.83;;;;;;;19.11;38.21;100056.72;;;;-47
2020/03/04 01:08:02;;;;;;;2.07;1.87;;;;;;;19.11;38.22;100054.61;;;;-48
2020/03/04 01:11:02;;;;;;;2.41;2.03;;;;;;;19.09;38.23;100062.30;;;;-47
2020/03/04 01:14:02;;;;;;;2.20;2.00;;;;;;;19.07;38.17;100070.52;;;;-47
2020/03/04 01:17:02;;;;;;;2.15;1.84;;;;;;;19.07;38.23;100069.84;;;;-47
2020/03/04 01:20:02;;;;;;;2.17;1.91;;;;;;;19.05;38.23;100067.86;;;;-47
2020/03/04 01:23:02;;;;;;;2.02;1.82;;;;;;;19.04;38.22;100063.03;;;;-47
2020/03/04 01:26:02;;;;;;;2.01;1.79;;;;;;;19.03;38.22;100067.28;;;;-48
2020/03/04 01:29:02;;;;;;;2.92;1.91;;;;;;;19.02;38.24;100069.91;;;;-47
2020/03/04 01:32:02;;;;;;;2.11;1.90;;;;;;;19.01;38.26;100072.95;;;;-46
2020/03/04 01:35:02;;;;;;;2.19;1.99;;;;;;;19.00;38.28;100080.95;;;;-48
2020/03/04 01:38:02;;;;;;;1.86;1.76;;;;;;;19.00;38.26;100082.45;;;;-47
2020/03/04 01:41:02;;;;;;;2.23;1.91;;;;;;;18.98;38.26;100086.49;;;;-47
2020/03/04 01:44:02;;;;;;;2.04;1.84;;;;;;;18.97;38.30;100079.32;;;;-47
2020/03/04 01:47:01;;;;;;;2.06;1.87;;;;;;;18.96;38.29;100075.86;;;;-47
2020/03/04 01:50:01;;;;;;;2.46;1.91;;;;;;;18.94;38.32;100076.45;;;;-47
2020/03/04 01:53:02;;;;;;;2.28;2.00;;;;;;;18.94;38.30;100076.95;;;;-47
2020/03/04 01:56:02;;;;;;;2.53;1.89;;;;;;;18.93;38.34;100079.99;;;;-47
2020/03/04 01:59:02;;;;;;;2.27;1.99;;;;;;;18.91;38.40;100084.70;;;;-47
2020/03/04 02:02:02;;;;;;;2.12;1.92;;;;;;;18.91;38.36;100081.25;;;;-47
2020/03/04 02:05:02;;;;;;;2.00;1.80;;;;;;;18.89;38.33;100083.45;;;;-47
2020/03/04 02:08:01;;;;;;;2.18;1.98;;;;;;;18.88;38.35;100084.41;;;;-47
2020/03/04 02:11:02;;;;;;;1.97;1.77;;;;;;;18.86;38.39;100088.78;;;;-47
2020/03/04 02:14:48;;;;;;;2.04;1.84;;;;;;;18.85;38.37;100093.53;;;;-47
2020/03/04 02:17:02;;;;;;;1.95;1.80;;;;;;;18.84;38.43;100098.67;;;;-47
2020/03/04 02:20:02;;;;;;;1.90;1.76;;;;;;;18.84;38.42;100095.45;;;;-47
2020/03/04 02:23:02;;;;;;;2.28;1.80;;;;;;;18.84;38.38;100102.38;;;;-47
2020/03/04 02:26:02;;;;;;;3.55;1.90;;;;;;;18.82;38.39;100100.06;;;;-47
2020/03/04 02:29:02;;;;;;;2.05;1.85;;;;;;;18.80;38.39;100103.42;;;;-46
2020/03/04 02:32:02;;;;;;;1.80;1.70;;;;;;;18.81;38.41;100108.11;;;;-47
2020/03/04 02:35:01;;;;;;;2.01;1.81;;;;;;;18.78;38.42;100105.34;;;;-47
2020/03/04 02:38:02;;;;;;;2.11;1.93;;;;;;;18.77;38.42;100105.41;;;;-47
2020/03/04 02:41:02;;;;;;;2.03;1.83;;;;;;;18.76;38.43;100106.27;;;;-48
2020/03/04 02:44:02;;;;;;;2.38;1.90;;;;;;;18.76;38.42;100113.90;;;;-46
2020/03/04 02:47:01;;;;;;;1.99;1.79;;;;;;;18.75;38.39;100113.75;;;;-47
2020/03/04 02:50:01;;;;;;;2.02;1.81;;;;;;;18.73;38.46;100117.02;;;;-47
2020/03/04 02:53:01;;;;;;;2.16;1.78;;;;;;;18.72;38.46;100116.80;;;;-47
2020/03/04 02:56:02;;;;;;;2.23;1.91;;;;;;;18.72;38.41;100119.15;;;;-47
2020/03/04 02:59:04;;;;;;;1.98;1.81;;;;;;;18.71;38.42;100121.05;;;;-47
2020/03/04 03:02:03;;;;;;;2.18;1.95;;;;;;;18.69;38.47;100121.47;;;;-46
2020/03/04 03:05:02;;;;;;;1.79;1.69;;;;;;;18.69;38.46;100119.80;;;;-46
2020/03/04 03:08:02;;;;;;;1.90;1.79;;;;;;;18.69;38.48;100121.13;;;;-47
2020/03/04 03:11:01;;;;;;;1.80;1.70;;;;;;;18.68;38.50;100125.00;;;;-47
2020/03/04 03:14:01;;;;;;;2.02;1.81;;;;;;;18.66;38.46;100124.84;;;;-47
2020/03/04 03:17:02;;;;;;;1.99;1.79;;;;;;;18.66;38.50;100125.25;;;;-47
2020/03/04 03:20:02;;;;;;;2.09;1.80;;;;;;;18.65;38.47;100131.16;;;;-47
2020/03/04 03:23:02;;;;;;;1.93;1.80;;;;;;;18.65;38.47;100136.34;;;;-47
2020/03/04 03:26:02;;;;;;;4.11;1.81;;;;;;;18.64;38.48;100141.33;;;;-47
2020/03/04 03:29:02;;;;;;;2.03;1.79;;;;;;;18.63;38.45;100145.63;;;;-47
2020/03/04 03:32:01;;;;;;;2.06;1.83;;;;;;;18.62;38.45;100146.42;;;;-47
2020/03/04 03:35:01;;;;;;;2.02;1.82;;;;;;;18.61;38.53;100148.32;;;;-47
2020/03/04 03:38:01;;;;;;;2.15;1.94;;;;;;;18.60;38.55;100152.08;;;;-47
2020/03/04 03:41:02;;;;;;;2.07;1.87;;;;;;;18.59;38.54;100152.81;;;;-47
2020/03/04 03:44:02;;;;;;;1.99;1.81;;;;;;;18.58;38.51;100150.44;;;;-47
2020/03/04 03:47:02;;;;;;;2.26;1.91;;;;;;;18.58;38.56;100150.42;;;;-47
2020/03/04 03:50:02;;;;;;;1.82;1.70;;;;;;;18.58;38.53;100152.40;;;;-47
2020/03/04 03:53:01;;;;;;;1.93;1.80;;;;;;;18.57;38.52;100152.52;;;;-47
2020/03/04 03:56:01;;;;;;;1.79;1.69;;;;;;;18.56;38.56;100155.36;;;;-48
2020/03/04 03:59:01;;;;;;;1.79;1.69;;;;;;;18.55;38.55;100150.70;;;;-47
2020/03/04 04:02:02;;;;;;;2.05;1.76;;;;;;;18.55;38.51;100156.26;;;;-47
2020/03/04 04:05:02;;;;;;;1.94;1.78;;;;;;;18.53;38.54;100161.92;;;;-47
2020/03/04 04:08:02;;;;;;;1.89;1.73;;;;;;;18.53;38.55;100163.32;;;;-47
2020/03/04 04:11:02;;;;;;;1.73;1.60;;;;;;;18.52;38.55;100163.21;;;;-47
2020/03/04 04:14:01;;;;;;;2.00;1.80;;;;;;;18.52;38.56;100160.36;;;;-47
2020/03/04 04:17:01;;;;;;;1.87;1.70;;;;;;;18.51;38.59;100168.68;;;;-47
2020/03/04 04:20:02;;;;;;;1.87;1.68;;;;;;;18.50;38.55;100164.12;;;;-46
2020/03/04 04:23:02;;;;;;;1.99;1.79;;;;;;;18.49;38.56;100168.92;;;;-47
2020/03/04 04:26:02;;;;;;;2.06;1.78;;;;;;;18.48;38.59;100172.00;;;;-47
2020/03/04 04:29:02;;;;;;;1.89;1.73;;;;;;;18.48;38.59;100173.23;;;;-48
2020/03/04 04:32:02;;;;;;;1.76;1.65;;;;;;;18.47;38.59;100175.47;;;;-46
2020/03/04 04:35:02;;;;;;;1.70;1.60;;;;;;;18.46;38.56;100176.09;;;;-47
2020/03/04 04:38:01;;;;;;;1.89;1.63;;;;;;;18.45;38.57;100174.21;;;;-47
2020/03/04 04:41:01;;;;;;;1.93;1.71;;;;;;;18.45;38.57;100170.03;;;;-47
2020/03/04 04:44:02;;;;;;;2.34;1.71;;;;;;;18.44;38.59;100172.66;;;;-47
2020/03/04 04:47:02;;;;;;;2.22;1.71;;;;;;;18.43;38.60;100173.95;;;;-47
2020/03/04 04:50:02;;;;;;;2.10;1.86;;;;;;;18.44;38.57;100179.84;;;;-47
2020/03/04 04:53:02;;;;;;;1.67;1.57;;;;;;;18.42;38.61;100181.50;;;;-47
2020/03/04 04:56:02;;;;;;;1.76;1.58;;;;;;;18.42;38.60;100186.78;;;;-47
2020/03/04 04:59:01;;;;;;;1.92;1.76;;;;;;;18.42;38.57;100185.51;;;;-47
2020/03/04 05:02:01;;;;;;;1.89;1.71;;;;;;;18.41;38.58;100189.09;;;;-48
2020/03/04 05:05:02;;;;;;;1.93;1.73;;;;;;;18.40;38.60;100189.37;;;;-47
2020/03/04 05:08:01;;;;;;;1.79;1.69;;;;;;;18.40;38.60;100194.79;;;;-47
2020/03/04 05:11:02;;;;;;;1.87;1.75;;;;;;;18.39;38.59;100190.33;;;;-47
2020/03/04 05:14:02;;;;;;;1.88;1.70;;;;;;;18.39;38.59;100199.53;;;;-47
2020/03/04 05:17:02;;;;;;;2.05;1.70;;;;;;;18.39;38.60;100202.09;;;;-47
2020/03/04 05:20:01;;;;;;;1.67;1.57;;;;;;;18.38;38.59;100207.77;;;;-49
2020/03/04 05:23:01;;;;;;;1.71;1.61;;;;;;;18.38;38.61;100206.06;;;;-46
2020/03/04 05:26:01;;;;;;;1.67;1.57;;;;;;;18.37;38.62;100209.06;;;;-47
2020/03/04 05:29:01;;;;;;;1.91;1.70;;;;;;;18.37;38.62;100216.48;;;;-47
2020/03/04 05:32:01;;;;;;;1.99;1.79;;;;;;;18.36;38.69;100212.94;;;;-46
2020/03/04 05:35:02;;;;;;;1.92;1.69;;;;;;;18.36;38.66;100216.44;;;;-47
2020/03/04 05:38:02;;;;;;;2.31;1.65;;;;;;;18.36;38.68;100216.61;;;;-47
2020/03/04 05:41:01;;;;;;;2.54;1.66;;;;;;;18.35;38.65;100219.80;;;;-48
2020/03/04 05:44:01;;;;;;;2.13;1.67;;;;;;;18.35;38.58;100227.16;;;;-47
2020/03/04 05:47:01;;;;;;;1.97;1.63;;;;;;;18.34;38.65;100234.25;;;;-48
2020/03/04 05:50:02;;;;;;;1.80;1.69;;;;;;;18.34;38.63;100244.88;;;;-47
2020/03/04 05:53:02;;;;;;;1.88;1.69;;;;;;;18.34;38.65;100249.02;;;;-46
2020/03/04 05:56:02;;;;;;;2.15;1.83;;;;;;;18.33;38.67;100250.02;;;;-47
2020/03/04 05:59:02;;;;;;;2.07;1.69;;;;;;;18.32;38.66;100251.03;;;;-47
2020/03/04 06:02:02;;;;;;;2.47;1.66;;;;;;;18.33;38.65;100255.48;;;;-47
2020/03/04 06:05:01;;;;;;;2.47;1.75;;;;;;;18.31;38.66;100253.77;;;;-48
2020/03/04 06:08:01;;;;;;;1.85;1.75;;;;;;;18.31;38.65;100253.22;;;;-48
2020/03/04 06:11:01;;;;;;;1.77;1.60;;;;;;;18.31;38.65;100258.38;;;;-47
2020/03/04 06:14:02;;;;;;;1.87;1.69;;;;;;;18.29;38.63;100253.94;;;;-47
2020/03/04 06:17:02;;;;;;;2.32;1.70;;;;;;;18.29;38.64;100253.34;;;;-46
2020/03/04 06:20:02;;;;;;;1.97;1.77;;;;;;;18.28;38.68;100255.06;;;;-47
2020/03/04 06:23:02;;;;;;;1.87;1.70;;;;;;;18.29;38.66;100264.10;;;;-47
2020/03/04 06:26:01;;;;;;;1.66;1.54;;;;;;;18.28;38.67;100265.66;;;;-51
2020/03/04 06:29:01;;;;;;;2.41;1.65;;;;;;;18.28;38.69;100264.45;;;;-51
2020/03/04 06:32:01;;;;;;;1.89;1.69;;;;;;;18.27;38.69;100269.69;;;;-51
2020/03/04 06:35:02;;;;;;;1.86;1.65;;;;;;;18.27;38.66;100277.78;;;;-51
2020/03/04 06:38:02;;;;;;;1.81;1.60;;;;;;;18.26;38.70;100280.22;;;;-51
2020/03/04 06:41:02;;;;;;;1.95;1.77;;;;;;;18.26;38.68;100274.66;;;;-51
2020/03/04 06:44:02;;;;;;;1.97;1.71;;;;;;;18.25;38.65;100273.44;;;;-51
2020/03/04 06:47:01;;;;;;;1.95;1.69;;;;;;;18.26;38.68;100273.89;;;;-50
2020/03/04 06:50:01;;;;;;;1.72;1.62;;;;;;;18.25;38.69;100270.50;;;;-51
2020/03/04 06:53:01;;;;;;;1.60;1.50;;;;;;;18.25;38.71;100276.72;;;;-50
2020/03/04 06:56:01;;;;;;;1.99;1.69;;;;;;;18.25;38.72;100272.84;;;;-51
2020/03/04 06:59:01;;;;;;;1.81;1.71;;;;;;;18.24;38.70;100269.45;;;;-51
2020/03/04 07:02:01;;;;;;;1.72;1.62;;;;;;;18.21;38.71;100267.75;;;;-50
2020/03/04 07:05:02;;;;;;;2.42;1.74;;;;;;;18.22;38.71;100269.09;;;;-51
2020/03/04 07:08:01;;;;;;;1.75;1.65;;;;;;;18.22;38.72;100266.02;;;;-51
2020/03/04 07:11:01;;;;;;;1.70;1.60;;;;;;;18.22;38.70;100265.52;;;;-50
2020/03/04 07:14:01;;;;;;;1.83;1.73;;;;;;;18.22;38.72;100265.52;;;;-51
2020/03/04 07:17:01;;;;;;;1.84;1.70;;;;;;;18.21;38.74;100273.05;;;;-51
2020/03/04 07:20:01;;;;;;;1.67;1.55;;;;;;;18.20;38.71;100272.88;;;;-51
2020/03/04 07:23:02;;;;;;;1.71;1.57;;;;;;;18.20;38.75;100278.02;;;;-51
2020/03/04 07:26:02;;;;;;;2.10;1.80;;;;;;;18.19;38.76;100272.13;;;;-51
2020/03/04 07:29:01;;;;;;;1.99;1.56;;;;;;;18.19;38.74;100280.31;;;;-50
2020/03/04 07:32:01;;;;;;;1.71;1.61;;;;;;;18.19;38.71;100284.44;;;;-50
2020/03/04 07:35:01;;;;;;;1.93;1.60;;;;;;;18.18;38.73;100287.63;;;;-51
2020/03/04 07:38:01;;;;;;;2.19;1.80;;;;;;;18.17;38.74;100293.64;;;;-51
2020/03/04 07:41:01;;;;;;;1.89;1.71;;;;;;;18.18;38.75;100295.65;;;;-51
2020/03/04 07:44:01;;;;;;;1.95;1.60;;;;;;;18.17;38.71;100292.92;;;;-51
2020/03/04 07:47:01;;;;;;;2.24;1.63;;;;;;;18.16;38.77;100290.64;;;;-51
2020/03/04 07:50:01;;;;;;;1.93;1.60;;;;;;;18.16;38.77;100289.91;;;;-51
2020/03/04 07:53:01;;;;;;;2.05;1.69;;;;;;;18.15;38.74;100283.08;;;;-50
2020/03/04 07:56:01;;;;;;;1.70;1.60;;;;;;;18.15;38.72;100282.41;;;;-50
2020/03/04 07:59:01;;;;;;;1.63;1.53;;;;;;;18.16;38.72;100287.96;;;;-50
2020/03/04 08:02:01;;;;;;;1.69;1.51;;;;;;;18.14;38.77;100294.16;;;;-50
2020/03/04 08:05:01;;;;;;;1.73;1.63;;;;;;;18.14;38.78;100303.75;;;;-51
2020/03/04 08:08:02;;;;;;;1.62;1.52;;;;;;;18.13;38.75;100301.47;;;;-51
2020/03/04 08:11:02;;;;;;;1.70;1.60;;;;;;;18.13;38.76;100297.85;;;;-50
2020/03/04 08:14:01;;;;;;;1.70;1.60;;;;;;;18.13;38.79;100304.97;;;;-51
2020/03/04 08:17:01;;;;;;;4.09;1.89;;;;;;;18.14;38.97;100311.20;;;;-51
2020/03/04 08:20:01;;;;;;;3.15;1.60;;;;;;;18.18;39.13;100314.30;;;;-49
2020/03/04 08:23:01;;;;;;;1.50;1.40;;;;;;;18.21;39.27;100310.66;;;;-51
2020/03/04 08:26:02;;;;;;;1.83;1.40;;;;;;;18.27;39.42;100313.98;;;;-51
2020/03/04 08:29:02;;;;;;;1.49;1.39;;;;;;;18.31;39.48;100309.39;;;;-52
2020/03/04 08:32:01;;;;;;;1.81;1.59;;;;;;;18.37;39.55;100311.45;;;;-51
2020/03/04 08:35:01;;;;;;;1.66;1.51;;;;;;;18.43;39.33;100313.40;;;;-50
2020/03/04 08:38:01;;;;;;;2.80;1.67;;;;;;;18.47;39.16;100310.23;;;;-51
2020/03/04 08:41:01;;;;;;;3.13;1.65;;;;;;;18.51;39.14;100309.99;;;;-51
2020/03/04 08:44:01;;;;;;;3.46;1.49;;;;;;;18.55;39.04;100308.84;;;;-51
2020/03/04 08:47:01;;;;;;;2.45;1.51;;;;;;;18.59;39.06;100309.13;;;;-51
2020/03/04 08:50:02;;;;;;;1.75;1.61;;;;;;;18.61;38.95;100315.41;;;;-51
2020/03/04 08:53:01;;;;;;;2.21;1.60;;;;;;;18.65;38.98;100313.30;;;;-51
2020/03/04 08:56:01;;;;;;;2.03;1.61;;;;;;;18.65;38.96;100314.66;;;;-50
2020/03/04 08:59:01;;;;;;;2.02;1.59;;;;;;;18.71;38.76;100318.27;;;;-51
2020/03/04 09:02:01;;;;;;;2.05;1.60;;;;;;;18.74;38.72;100314.52;;;;-50
2020/03/04 09:05:01;;;;;;;8.82;1.81;;;;;;;18.81;39.18;100315.90;;;;-60
2020/03/04 09:08:01;;;;;;;1.70;1.50;;;;;;;18.90;39.51;100315.41;;;;-55
2020/03/04 09:11:01;;;;;;;2.45;1.77;;;;;;;18.98;39.75;100323.12;;;;-56
2020/03/04 09:14:01;;;;;;;3.20;1.50;;;;;;;19.04;39.83;100319.10;;;;-53
2020/03/04 09:17:01;;;;;;;3.14;1.54;;;;;;;19.07;39.26;100320.67;;;;-57
2020/03/04 09:20:01;;;;;;;1.89;1.50;;;;;;;19.11;39.22;100319.14;;;;-57
2020/03/04 09:23:01;;;;;;;1.83;1.51;;;;;;;19.12;38.88;100319.95;;;;-55
2020/03/04 09:26:01;;;;;;;5.93;1.85;;;;;;;19.17;38.72;100320.84;;;;-51
2020/03/04 09:29:01;;;;;;;2.33;1.77;;;;;;;19.17;38.60;100323.16;;;;-51
2020/03/04 09:32:01;;;;;;;2.56;1.70;;;;;;;19.19;38.55;100323.88;;;;-51
2020/03/04 09:35:02;;;;;;;2.03;1.51;;;;;;;19.19;38.58;100326.76;;;;-51
2020/03/04 09:41:01;;;;;;;2.88;1.60;;;;;;;19.24;38.64;100324.19;;;;-52
2020/03/04 09:44:01;;;;;;;2.13;1.53;;;;;;;19.25;38.46;100323.62;;;;-51
2020/03/04 09:47:01;;;;;;;1.99;1.68;;;;;;;19.27;38.66;100322.65;;;;-51
2020/03/04 09:50:01;;;;;;;2.15;1.70;;;;;;;19.34;38.76;100323.34;;;;-59
2020/03/04 09:53:01;;;;;;;2.92;1.68;;;;;;;19.38;38.95;100319.63;;;;-51
2020/03/04 09:56:01;;;;;;;4.97;1.67;;;;;;;19.47;38.90;100327.05;;;;-53
2020/03/04 09:59:01;;;;;;;2.53;1.70;;;;;;;19.44;38.49;100324.45;;;;-53
2020/03/04 10:02:01;;;;;;;2.19;1.49;;;;;;;19.45;38.38;100321.31;;;;-53
2020/03/04 10:05:01;;;;;;;1.73;1.60;;;;;;;19.45;38.48;100320.77;;;;-50
2020/03/04 10:08:01;;;;;;;2.30;1.72;;;;;;;19.51;38.68;100317.34;;;;-59
2020/03/04 10:11:01;;;;;;;2.13;1.79;;;;;;;19.51;38.54;100317.61;;;;-59
2020/03/04 10:14:01;;;;;;;4.21;1.75;;;;;;;19.51;38.46;100315.27;;;;-52
2020/03/04 10:17:01;;;;;;;3.27;1.68;;;;;;;19.51;38.31;100314.09;;;;-52
2020/03/04 10:20:01;;;;;;;2.76;1.61;;;;;;;19.54;38.38;100312.38;;;;-52
2020/03/04 10:23:01;;;;;;;3.13;1.85;;;;;;;19.57;38.62;100319.27;;;;-55
2020/03/04 10:26:01;;;;;;;3.69;1.77;;;;;;;19.55;38.35;100315.83;;;;-53
2020/03/04 10:29:01;;;;;;;4.37;1.76;;;;;;;19.55;38.36;100318.17;;;;-53
2020/03/04 10:32:01;;;;;;;2.29;1.54;;;;;;;19.53;38.29;100312.73;;;;-54
2020/03/04 10:35:01;;;;;;;4.67;1.60;;;;;;;19.54;38.14;100313.61;;;;-54
2020/03/04 10:38:01;;;;;;;2.19;1.70;;;;;;;19.54;38.40;100310.19;;;;-54
2020/03/04 10:41:01;;;;;;;2.13;1.65;;;;;;;19.53;38.25;100313.50;;;;-53
2020/03/04 10:44:01;;;;;;;2.15;1.65;;;;;;;19.53;38.30;100311.16;;;;-53
2020/03/04 10:47:01;;;;;;;1.91;1.53;;;;;;;19.54;38.31;100313.21;;;;-58
2020/03/04 10:50:01;;;;;;;2.00;1.58;;;;;;;19.54;38.32;100308.75;;;;-58
2020/03/04 10:53:01;;;;;;;2.21;1.49;;;;;;;19.54;38.21;100316.73;;;;-58
2020/03/04 10:56:01;;;;;;;1.66;1.45;;;;;;;19.55;38.33;100317.84;;;;-58
2020/03/04 10:59:01;;;;;;;1.77;1.61;;;;;;;19.56;38.35;100319.99;;;;-58
2020/03/04 11:02:01;;;;;;;3.06;1.54;;;;;;;19.56;38.28;100316.20;;;;-58
2020/03/04 11:05:01;;;;;;;3.32;1.68;;;;;;;19.58;38.33;100317.80;;;;-58
2020/03/04 11:08:01;;;;;;;2.57;1.57;;;;;;;19.58;38.32;100311.27;;;;-58
2020/03/04 11:11:01;;;;;;;2.28;1.50;;;;;;;19.60;38.37;100308.00;;;;-57
2020/03/04 11:14:01;;;;;;;1.53;1.43;;;;;;;19.59;38.36;100313.25;;;;-57
2020/03/04 11:17:01;;;;;;;2.91;1.57;;;;;;;19.62;38.36;100312.77;;;;-59
2020/03/04 11:20:01;;;;;;;2.11;1.56;;;;;;;19.62;38.37;100314.78;;;;-57
2020/03/04 11:23:01;;;;;;;2.05;1.41;;;;;;;19.62;38.31;100312.94;;;;-57
2020/03/04 11:26:01;;;;;;;2.96;1.73;;;;;;;19.64;38.34;100309.00;;;;-57
2020/03/04 11:29:01;;;;;;;2.36;1.55;;;;;;;19.64;38.29;100304.72;;;;-58
2020/03/04 11:32:01;;;;;;;2.03;1.51;;;;;;;19.64;38.28;100299.45;;;;-58
2020/03/04 11:35:01;;;;;;;3.15;1.60;;;;;;;19.64;38.28;100305.66;;;;-58
2020/03/04 11:38:01;;;;;;;1.98;1.49;;;;;;;19.66;38.25;100306.07;;;;-58
2020/03/04 11:41:14;;;;;;;2.51;1.49;;;;;;;19.66;38.30;100302.89;;;;-58
2020/03/04 11:44:02;;;;;;;2.75;1.55;;;;;;;19.68;38.23;100295.83;;;;-58
2020/03/04 11:47:01;;;;;;;1.61;1.51;;;;;;;19.69;38.30;100301.27;;;;-58
2020/03/04 11:50:01;;;;;;;2.12;1.59;;;;;;;19.69;38.26;100293.86;;;;-57
2020/03/04 11:53:01;;;;;;;1.85;1.56;;;;;;;19.68;38.23;100290.51;;;;-57
2020/03/04 11:56:01;;;;;;;1.59;1.49;;;;;;;19.70;38.24;100285.09;;;;-58
2020/03/04 11:59:01;;;;;;;1.73;1.47;;;;;;;19.70;38.21;100276.58;;;;-58
2020/03/04 12:02:28;;;;;;;1.95;1.50;;;;;;;19.71;38.16;100283.89;;;;-58
2020/03/04 12:05:01;;;;;;;1.75;1.43;;;;;;;19.70;38.20;100283.05;;;;-58
2020/03/04 12:08:01;;;;;;;1.61;1.40;;;;;;;19.71;38.15;100282.78;;;;-58
2020/03/04 12:11:01;;;;;;;2.30;1.50;;;;;;;19.71;38.22;100276.55;;;;-58
2020/03/04 12:14:01;;;;;;;1.80;1.51;;;;;;;19.72;38.21;100277.46;;;;-57
2020/03/04 12:17:01;;;;;;;1.71;1.43;;;;;;;19.71;38.18;100267.67;;;;-59
2020/03/04 12:20:01;;;;;;;1.53;1.43;;;;;;;19.71;38.13;100267.84;;;;-58
2020/03/04 12:23:01;;;;;;;1.41;1.31;;;;;;;19.71;38.16;100264.45;;;;-58
2020/03/04 12:26:01;;;;;;;3.06;1.50;;;;;;;19.72;38.11;100257.39;;;;-58
2020/03/04 12:29:01;;;;;;;1.50;1.40;;;;;;;19.73;38.14;100255.42;;;;-58
2020/03/04 12:32:01;;;;;;;1.99;1.43;;;;;;;19.73;38.13;100253.08;;;;-58
2020/03/04 12:35:01;;;;;;;1.62;1.46;;;;;;;19.75;38.10;100256.51;;;;-57
2020/03/04 12:38:01;;;;;;;1.57;1.41;;;;;;;19.75;38.12;100253.59;;;;-58
2020/03/04 12:41:01;;;;;;;1.50;1.40;;;;;;;19.76;38.08;100256.55;;;;-58
2020/03/04 12:44:01;;;;;;;1.64;1.54;;;;;;;19.77;38.13;100258.27;;;;-58
2020/03/04 12:47:01;;;;;;;1.50;1.40;;;;;;;19.78;38.03;100260.55;;;;-58
2020/03/04 12:50:01;;;;;;;1.88;1.46;;;;;;;19.77;38.13;100264.13;;;;-58
2020/03/04 12:53:01;;;;;;;1.80;1.41;;;;;;;19.77;38.12;100262.62;;;;-57
2020/03/04 12:56:01;;;;;;;1.49;1.39;;;;;;;19.78;38.13;100255.62;;;;-58
2020/03/04 12:59:01;;;;;;;1.55;1.40;;;;;;;19.79;38.05;100255.66;;;;-58
2020/03/04 13:02:01;;;;;;;1.59;1.49;;;;;;;19.81;38.05;100249.11;;;;-58
2020/03/04 13:05:01;;;;;;;1.40;1.30;;;;;;;19.81;38.07;100248.88;;;;-58
2020/03/04 13:08:01;;;;;;;1.48;1.38;;;;;;;19.81;38.08;100245.92;;;;-58
2020/03/04 13:11:01;;;;;;;1.52;1.40;;;;;;;19.80;38.08;100239.85;;;;-57
2020/03/04 13:14:01;;;;;;;1.60;1.50;;;;;;;19.80;38.10;100243.87;;;;-59
2020/03/04 13:17:01;;;;;;;1.83;1.40;;;;;;;19.81;38.00;100242.67;;;;-58
2020/03/04 13:20:01;;;;;;;1.59;1.41;;;;;;;19.80;38.04;100240.13;;;;-58
2020/03/04 13:23:01;;;;;;;1.82;1.43;;;;;;;19.81;38.04;100233.69;;;;-57
2020/03/04 13:26:01;;;;;;;1.93;1.27;;;;;;;19.82;38.06;100227.13;;;;-58
2020/03/04 13:29:01;;;;;;;1.40;1.30;;;;;;;19.81;38.03;100224.41;;;;-57
2020/03/04 13:32:01;;;;;;;1.63;1.50;;;;;;;19.80;37.98;100214.66;;;;-58
2020/03/04 13:35:01;;;;;;;1.52;1.40;;;;;;;19.84;38.04;100220.64;;;;-58
2020/03/04 13:38:01;;;;;;;1.53;1.40;;;;;;;19.84;38.03;100217.55;;;;-58
2020/03/04 13:41:01;;;;;;;1.60;1.50;;;;;;;19.86;37.99;100220.55;;;;-58
2020/03/04 13:44:01;;;;;;;1.59;1.31;;;;;;;19.86;38.04;100217.80;;;;-58
2020/03/04 13:47:01;;;;;;;1.78;1.43;;;;;;;19.85;38.02;100214.68;;;;-58
2020/03/04 13:50:01;;;;;;;1.47;1.37;;;;;;;19.87;37.98;100207.95;;;;-58
2020/03/04 13:53:01;;;;;;;1.65;1.47;;;;;;;19.85;38.00;100206.94;;;;-57
2020/03/04 13:56:01;;;;;;;1.59;1.40;;;;;;;19.86;38.02;100203.33;;;;-57
2020/03/04 13:59:01;;;;;;;2.41;1.50;;;;;;;19.86;38.04;100200.54;;;;-58
2020/03/04 14:02:01;;;;;;;1.78;1.39;;;;;;;19.86;38.03;100189.98;;;;-57
2020/03/04 14:05:01;;;;;;;1.51;1.41;;;;;;;19.86;38.05;100187.91;;;;-57
2020/03/04 14:08:01;;;;;;;1.79;1.45;;;;;;;19.86;37.98;100188.58;;;;-58
2020/03/04 14:11:01;;;;;;;1.55;1.40;;;;;;;19.87;38.00;100187.67;;;;-57
2020/03/04 14:14:01;;;;;;;1.43;1.33;;;;;;;19.88;37.98;100184.43;;;;-57
2020/03/04 14:17:01;;;;;;;1.49;1.39;;;;;;;19.88;37.99;100188.31;;;;-58
2020/03/04 14:20:01;;;;;;;1.46;1.36;;;;;;;19.89;37.96;100185.13;;;;-58
2020/03/04 14:23:01;;;;;;;2.07;1.51;;;;;;;19.89;37.97;100181.98;;;;-58
2020/03/04 14:26:01;;;;;;;1.59;1.49;;;;;;;19.90;37.99;100180.15;;;;-58
2020/03/04 14:29:01;;;;;;;1.75;1.37;;;;;;;19.91;37.94;100174.42;;;;-59
2020/03/04 14:32:01;;;;;;;1.63;1.39;;;;;;;19.92;37.96;100171.74;;;;-58
2020/03/04 14:35:01;;;;;;;1.34;1.24;;;;;;;19.93;37.94;100175.47;;;;-58
2020/03/04 14:38:01;;;;;;;1.65;1.55;;;;;;;19.91;37.90;100168.66;;;;-58
2020/03/04 14:41:01;;;;;;;1.55;1.40;;;;;;;19.93;37.96;100173.72;;;;-58
2020/03/04 14:44:01;;;;;;;1.41;1.31;;;;;;;19.93;37.84;100173.42;;;;-57
2020/03/04 14:47:01;;;;;;;1.64;1.46;;;;;;;19.93;37.91;100174.96;;;;-57
2020/03/04 14:50:01;;;;;;;1.64;1.35;;;;;;;19.92;37.96;100170.61;;;;-58
2020/03/04 14:53:01;;;;;;;1.61;1.49;;;;;;;19.92;37.88;100168.55;;;;-58
2020/03/04 14:56:01;;;;;;;1.51;1.41;;;;;;;19.92;37.94;100162.83;;;;-57
2020/03/04 14:59:01;;;;;;;1.74;1.41;;;;;;;19.91;37.90;100160.41;;;;-58
2020/03/04 15:02:01;;;;;;;1.69;1.40;;;;;;;19.92;37.90;100158.50;;;;-57
2020/03/04 15:05:01;;;;;;;1.65;1.50;;;;;;;19.92;37.95;100156.48;;;;-58
2020/03/04 15:08:01;;;;;;;1.65;1.33;;;;;;;19.93;37.86;100158.47;;;;-58
2020/03/04 15:11:01;;;;;;;1.64;1.52;;;;;;;19.93;37.89;100159.20;;;;-58
2020/03/04 15:14:01;;;;;;;1.51;1.33;;;;;;;19.93;37.92;100158.47;;;;-58
2020/03/04 15:17:01;;;;;;;1.42;1.31;;;;;;;19.93;37.88;100148.78;;;;-57
2020/03/04 15:20:01;;;;;;;1.57;1.42;;;;;;;19.96;38.00;100148.93;;;;-55
2020/03/04 15:23:01;;;;;;;2.79;1.53;;;;;;;19.97;38.21;100143.58;;;;-60
2020/03/04 15:26:01;;;;;;;2.29;1.56;;;;;;;19.98;37.92;100142.54;;;;-57
2020/03/04 15:29:01;;;;;;;2.23;1.54;;;;;;;20.00;38.29;100142.84;;;;-60
2020/03/04 15:32:01;;;;;;;1.70;1.40;;;;;;;20.02;38.05;100142.19;;;;-61
2020/03/04 15:35:01;;;;;;;5.63;1.73;;;;;;;20.04;38.00;100140.72;;;;-60
2020/03/04 15:38:01;;;;;;;3.11;1.60;;;;;;;20.04;37.83;100135.95;;;;-63
2020/03/04 15:41:01;;;;;;;5.32;1.61;;;;;;;20.10;37.94;100137.85;;;;-63
2020/03/04 15:44:01;;;;;;;3.45;1.53;;;;;;;20.11;38.28;100134.70;;;;-60
2020/03/04 15:47:01;;;;;;;7.09;1.66;;;;;;;20.12;38.22;100132.89;;;;-55
2020/03/04 15:50:01;;;;;;;5.54;1.75;;;;;;;20.10;37.74;100135.07;;;;-56
2020/03/04 15:53:01;;;;;;;6.09;1.91;;;;;;;20.12;38.12;100128.10;;;;-60
2020/03/04 15:56:01;;;;;;;6.25;2.01;;;;;;;20.15;38.28;100124.36;;;;-55
2020/03/04 15:59:01;;;;;;;8.65;1.80;;;;;;;20.16;38.16;100120.30;;;;-61
2020/03/04 16:02:01;;;;;;;8.09;1.90;;;;;;;20.16;38.49;100118.02;;;;-61
2020/03/04 16:05:01;;;;;;;11.58;2.01;;;;;;;20.17;38.44;100115.94;;;;-55
2020/03/04 16:08:01;;;;;;;4.61;2.12;;;;;;;20.16;38.22;100123.89;;;;-54
2020/03/04 16:11:01;;;;;;;2.83;1.88;;;;;;;20.16;38.06;100122.88;;;;-57
2020/03/04 16:14:01;;;;;;;5.57;1.91;;;;;;;20.15;37.90;100122.68;;;;-54
2020/03/04 16:17:01;;;;;;;7.25;1.92;;;;;;;20.14;37.77;100120.73;;;;-53
2020/03/04 16:20:01;;;;;;;5.98;1.89;;;;;;;20.16;37.83;100124.83;;;;-57
2020/03/04 16:23:01;;;;;;;5.14;1.87;;;;;;;20.20;38.03;100122.36;;;;-53
2020/03/04 16:26:01;;;;;;;3.70;1.89;;;;;;;20.20;37.97;100120.08;;;;-57
2020/03/04 16:29:01;;;;;;;3.49;1.71;;;;;;;20.21;38.12;100121.45;;;;-54
2020/03/04 16:32:01;;;;;;;3.72;1.81;;;;;;;20.23;38.26;100117.33;;;;-56
2020/03/04 16:35:01;;;;;;;3.88;1.81;;;;;;;20.24;38.40;100114.69;;;;-53
2020/03/04 16:38:01;;;;;;;2.57;1.77;;;;;;;20.25;38.26;100113.78;;;;-62
2020/03/04 16:41:01;;;;;;;4.99;1.71;;;;;;;20.26;38.41;100110.50;;;;-54
2020/03/04 16:44:01;;;;;;;4.36;1.63;;;;;;;20.28;38.32;100104.80;;;;-62
2020/03/04 16:47:01;;;;;;;3.52;1.80;;;;;;;20.31;38.31;100105.27;;;;-65